Oroshaza, Hungary
Current Conditions -  °F | °C
As of 7:45 PM on Sunday 21 Dec 2014 (Local Time) from LHUD Reporting Station
Clear Clear  
Wind Chill: 31°   Ceiling: Unl
Heat Index: 37°   Visibility: 6mi
Dew Point: 28°   Wind: 8mph
Humidity: 70%   Direction: 250°WSW
Pressure: 30.39"   Gusts: NA
Location:  46.57°N, 20.67°E
Report Text: LHUD 211745Z 25007KT CAVOK 03/M02 Q1029
Loading
Personal Weather Stations






























Interactive Weather Map New forecast layout! Learn more

10-Day Weather Forecast

Advertisements
Track Severe Weather on mobile